Mount Union, Iowa
Current Conditions -  °F | °C
As of 11:55 PM on Saturday 25 Oct 2014 (Local Time) from KMPZ Reporting Station
Clear Clear  
Wind Chill: 51°   Ceiling: Unl
Heat Index: 51°   Visibility: 10mi
Dew Point: 37°   Wind: 5mph
Humidity: 58%   Direction: 330°NNW
Pressure: 30.06"   Gusts: NA
Location:  41.06°N, 91.39°W
Report Text: KMPZ 260455Z AUTO 33004KT 10SM CLR 11/03 A3006 RMK AO2 T01060026
Loading
Personal Weather Stations






























Interactive Weather Map
Tropical Storm Tracking
New forecast layout! Learn more

10-Day Weather Forecast

Advertisements
Track Severe Weather on mobile